createdAt,value
2018-06-30T00:00:44.810Z,14.20
2018-06-30T00:03:12.978Z,11.75
2018-06-30T00:05:41.126Z,10.63
2018-06-30T00:08:09.302Z,13.38
2018-06-30T00:10:37.584Z,11.63
2018-06-30T00:13:05.753Z,14.13
2018-06-30T00:15:33.921Z,13.15
2018-06-30T00:18:02.091Z,12.65
2018-06-30T00:20:30.262Z,15.72
2018-06-30T00:22:58.433Z,15.68
2018-06-30T00:25:26.581Z,16.05
2018-06-30T00:27:56.325Z,13.88
2018-06-30T00:30:25.405Z,10.03
2018-06-30T00:32:54.006Z,14.20
2018-06-30T00:35:22.161Z,14.23
2018-06-30T00:37:50.333Z,11.70
2018-06-30T00:40:18.491Z,16.15
2018-06-30T00:42:46.661Z,17.05
2018-06-30T00:45:14.825Z,13.18
2018-06-30T00:47:42.990Z,16.97
2018-06-30T00:50:11.171Z,14.60
2018-06-30T00:52:39.338Z,16.32
2018-06-30T00:55:07.516Z,13.30
2018-06-30T00:57:35.678Z,15.00
2018-06-30T01:00:03.861Z,13.08
2018-06-30T01:02:32.037Z,15.43
2018-06-30T01:05:00.218Z,17.80
2018-06-30T01:07:28.369Z,16.48
2018-06-30T01:09:56.533Z,14.87
2018-06-30T01:12:24.690Z,16.82
2018-06-30T01:14:52.857Z,16.07
2018-06-30T01:17:20.786Z,15.08
2018-06-30T01:19:49.195Z,15.55
2018-06-30T01:22:17.346Z,12.82
2018-06-30T01:24:45.589Z,16.80
2018-06-30T01:27:13.754Z,14.68
2018-06-30T01:29:41.927Z,13.48
2018-06-30T01:32:10.129Z,14.05
2018-06-30T01:34:38.312Z,16.42
2018-06-30T01:37:06.513Z,14.35
2018-06-30T01:39:34.709Z,13.18
2018-06-30T01:42:02.867Z,13.83
2018-06-30T01:44:31.085Z,16.07
2018-06-30T01:46:59.247Z,14.50
2018-06-30T01:49:27.434Z,15.28
2018-06-30T01:51:55.599Z,13.88
2018-06-30T01:54:23.765Z,12.43
2018-06-30T01:56:52.144Z,10.55
2018-06-30T01:59:20.300Z,15.72
2018-06-30T02:01:48.528Z,15.30
2018-06-30T02:04:16.781Z,13.35
2018-06-30T02:06:44.957Z,12.73
2018-06-30T02:09:13.134Z,13.80
2018-06-30T02:11:41.342Z,14.05
2018-06-30T02:14:10.080Z,13.70
2018-06-30T02:16:38.268Z,12.80
2018-06-30T02:19:06.541Z,14.73
2018-06-30T02:21:34.770Z,11.80
2018-06-30T02:24:02.946Z,10.82
2018-06-30T02:26:31.120Z,15.13
2018-06-30T02:28:59.431Z,15.50
2018-06-30T02:31:27.869Z,11.53
2018-06-30T02:33:56.085Z,14.70
2018-06-30T02:36:24.304Z,17.07
2018-06-30T02:38:52.684Z,14.38
2018-06-30T02:41:20.857Z,12.43
2018-06-30T02:43:49.082Z,11.60
2018-06-30T02:46:17.353Z,14.40
2018-06-30T02:48:45.715Z,12.23
2018-06-30T02:51:13.882Z,11.63
2018-06-30T02:53:42.033Z,12.80
2018-06-30T02:56:10.229Z,10.90
2018-06-30T02:58:38.389Z,13.08
2018-06-30T03:01:06.769Z,14.45
2018-06-30T03:03:34.969Z,11.60
2018-06-30T03:06:03.258Z,13.18
2018-06-30T03:08:31.422Z,16.60
2018-06-30T03:10:59.610Z,12.93
2018-06-30T03:13:27.784Z,14.45
2018-06-30T03:15:55.954Z,13.72
2018-06-30T03:18:24.109Z,12.78
2018-06-30T03:20:52.269Z,11.15
2018-06-30T03:23:20.441Z,13.30
2018-06-30T03:25:48.598Z,13.43
2018-06-30T03:28:16.761Z,12.35
2018-06-30T03:30:44.981Z,13.25
2018-06-30T03:33:13.261Z,14.68
2018-06-30T03:35:41.434Z,12.70
2018-06-30T03:38:09.604Z,11.10
2018-06-30T03:40:37.756Z,15.95
2018-06-30T03:43:05.927Z,12.13
2018-06-30T03:45:34.117Z,11.73
2018-06-30T03:48:02.308Z,12.60
2018-06-30T03:50:30.474Z,12.40
2018-06-30T03:52:58.662Z,11.35
2018-06-30T03:55:26.835Z,9.90
2018-06-30T03:57:55.069Z,14.50
2018-06-30T04:00:23.322Z,11.75
2018-06-30T04:02:51.489Z,14.30
2018-06-30T04:05:19.667Z,10.15
2018-06-30T04:07:47.842Z,9.60
2018-06-30T04:10:16.205Z,12.07
2018-06-30T04:12:44.374Z,9.60
2018-06-30T04:15:12.547Z,9.00
2018-06-30T04:17:40.791Z,10.08
2018-06-30T04:20:09.034Z,12.68
2018-06-30T04:22:37.196Z,8.48
2018-06-30T04:25:05.466Z,9.48
2018-06-30T04:27:33.637Z,9.10
2018-06-30T04:30:01.825Z,12.78
2018-06-30T04:32:30.064Z,11.20
2018-06-30T04:34:58.245Z,10.82
2018-06-30T04:37:26.427Z,10.32
2018-06-30T04:39:54.917Z,8.25
2018-06-30T04:42:23.129Z,8.50
2018-06-30T04:44:51.317Z,8.13
2018-06-30T04:47:19.478Z,10.78
2018-06-30T04:49:47.702Z,6.37
2018-06-30T04:52:15.864Z,7.90
2018-06-30T04:54:44.149Z,9.23
2018-06-30T04:57:12.329Z,5.87
2018-06-30T04:59:40.488Z,7.15
2018-06-30T05:02:08.677Z,7.87
2018-06-30T05:04:36.849Z,6.03
2018-06-30T05:07:05.026Z,6.67
2018-06-30T05:09:33.189Z,6.25
2018-06-30T05:12:01.359Z,6.50
2018-06-30T05:14:29.541Z,4.72
2018-06-30T05:16:57.717Z,5.67
2018-06-30T05:19:25.878Z,5.10
2018-06-30T05:21:54.073Z,6.17
2018-06-30T05:24:22.250Z,4.75
2018-06-30T05:26:50.405Z,5.22
2018-06-30T05:29:18.572Z,4.37
2018-06-30T05:31:46.741Z,4.53
2018-06-30T05:34:14.909Z,4.80
2018-06-30T05:36:43.081Z,4.47
2018-06-30T05:39:11.249Z,5.30
2018-06-30T05:41:39.417Z,5.05
2018-06-30T05:44:07.581Z,4.70
2018-06-30T05:46:35.760Z,4.20
2018-06-30T05:49:03.938Z,4.60
2018-06-30T05:51:32.093Z,3.30
2018-06-30T05:54:00.264Z,5.22
2018-06-30T05:56:28.524Z,4.47
2018-06-30T05:58:56.702Z,4.62
2018-06-30T06:01:24.868Z,2.80
2018-06-30T06:03:53.069Z,3.30
2018-06-30T06:06:21.473Z,6.53
2018-06-30T06:08:49.625Z,4.20
2018-06-30T06:11:17.791Z,3.55
2018-06-30T06:13:45.969Z,3.45
2018-06-30T06:16:14.143Z,2.62
2018-06-30T06:18:42.341Z,3.50
2018-06-30T06:21:10.544Z,3.15
2018-06-30T06:23:38.693Z,5.20
2018-06-30T06:26:07.006Z,2.92
2018-06-30T06:28:35.174Z,3.22
2018-06-30T06:31:03.365Z,3.00
2018-06-30T06:33:31.533Z,3.12
2018-06-30T06:35:59.797Z,4.33
2018-06-30T06:38:28.026Z,3.83
2018-06-30T06:40:56.225Z,2.90
2018-06-30T06:43:24.470Z,3.58
2018-06-30T06:45:52.638Z,2.75
2018-06-30T06:48:20.805Z,3.15
2018-06-30T06:50:49.010Z,2.35
2018-06-30T06:53:17.184Z,5.10
2018-06-30T06:55:45.381Z,2.40
2018-06-30T06:58:13.607Z,5.40
2018-06-30T07:00:41.814Z,3.60
2018-06-30T07:03:09.990Z,2.12
2018-06-30T07:05:38.134Z,5.45
2018-06-30T07:08:06.306Z,4.05
2018-06-30T07:10:34.489Z,3.40
2018-06-30T07:13:02.678Z,3.70
2018-06-30T07:15:30.858Z,2.90
2018-06-30T07:17:59.063Z,4.37
2018-06-30T07:20:27.249Z,5.33
2018-06-30T07:22:55.429Z,2.85
2018-06-30T07:25:23.590Z,2.65
2018-06-30T07:27:51.749Z,3.02
2018-06-30T07:30:19.929Z,3.45
2018-06-30T07:32:48.113Z,5.28
2018-06-30T07:35:16.326Z,4.12
2018-06-30T07:37:44.630Z,4.58
2018-06-30T07:40:12.783Z,5.40
2018-06-30T07:42:40.949Z,4.92
2018-06-30T07:45:09.175Z,2.98
2018-06-30T07:47:37.346Z,3.85
2018-06-30T07:50:05.583Z,2.67
2018-06-30T07:52:33.950Z,2.85
2018-06-30T07:55:02.107Z,3.47
2018-06-30T07:57:30.304Z,3.52
2018-06-30T07:59:58.428Z,2.30
2018-06-30T08:02:26.862Z,3.85
2018-06-30T08:04:55.038Z,5.78
2018-06-30T08:07:23.295Z,5.95
2018-06-30T08:09:51.370Z,3.60
2018-06-30T08:12:19.526Z,2.52
2018-06-30T08:14:47.681Z,4.17
2018-06-30T08:17:15.848Z,4.85
2018-06-30T08:19:43.995Z,5.67
2018-06-30T08:22:12.174Z,4.03
2018-06-30T08:24:40.357Z,4.45
2018-06-30T08:27:08.683Z,6.00
2018-06-30T08:29:36.954Z,3.05
2018-06-30T08:32:05.029Z,4.72
2018-06-30T08:34:33.227Z,4.12
2018-06-30T08:37:01.462Z,5.65
2018-06-30T08:39:29.633Z,1.95
2018-06-30T08:41:57.834Z,3.80
2018-06-30T08:44:26.002Z,2.85
2018-06-30T08:46:54.167Z,3.45
2018-06-30T08:49:22.410Z,1.90
2018-06-30T08:51:50.578Z,2.80
2018-06-30T08:54:18.751Z,4.10
2018-06-30T08:56:47.336Z,2.85
2018-06-30T08:59:15.552Z,4.17
2018-06-30T09:01:43.746Z,4.42
2018-06-30T09:04:11.936Z,1.75
2018-06-30T09:06:40.182Z,3.65
2018-06-30T09:09:09.310Z,6.42
2018-06-30T09:11:37.621Z,11.18
2018-06-30T09:14:05.849Z,3.98
2018-06-30T09:16:34.043Z,3.60
2018-06-30T09:19:02.247Z,5.65
2018-06-30T09:21:30.436Z,2.50
2018-06-30T09:23:58.385Z,2.55
2018-06-30T09:26:26.577Z,2.50
2018-06-30T09:28:55.177Z,3.50
2018-06-30T09:31:23.537Z,2.98
2018-06-30T09:33:51.702Z,5.45
2018-06-30T09:36:19.946Z,3.55
2018-06-30T09:38:48.141Z,2.62
2018-06-30T09:41:16.368Z,4.17
2018-06-30T09:43:44.542Z,2.12
2018-06-30T09:46:12.716Z,1.92
2018-06-30T09:48:40.890Z,2.65
2018-06-30T09:51:09.067Z,2.25
2018-06-30T09:53:37.235Z,1.45
2018-06-30T09:56:05.473Z,3.25
2018-06-30T09:58:33.668Z,1.55
2018-06-30T10:01:08.642Z,2.27
2018-06-30T10:03:37.753Z,2.42
2018-06-30T10:06:06.277Z,4.40
2018-06-30T10:08:34.550Z,1.65
2018-06-30T10:11:02.798Z,2.55
2018-06-30T10:13:30.964Z,2.35
2018-06-30T10:15:59.166Z,1.02
2018-06-30T10:18:27.360Z,2.67
2018-06-30T10:20:55.627Z,2.80
2018-06-30T10:23:23.995Z,4.08
2018-06-30T10:25:52.405Z,1.65
2018-06-30T10:28:20.714Z,1.50
2018-06-30T10:30:48.891Z,1.57
2018-06-30T10:33:17.102Z,1.10
2018-06-30T10:35:45.277Z,1.77
2018-06-30T10:38:13.458Z,1.12
2018-06-30T10:40:41.737Z,1.77
2018-06-30T10:43:09.937Z,3.40
2018-06-30T10:45:38.122Z,0.95
2018-06-30T10:48:06.591Z,1.55
2018-06-30T10:50:34.844Z,2.98
2018-06-30T10:53:03.030Z,1.50
2018-06-30T10:55:31.250Z,0.68
2018-06-30T10:57:59.396Z,1.12
2018-06-30T11:00:27.581Z,1.57
2018-06-30T11:02:55.794Z,0.80
2018-06-30T11:05:24.018Z,1.65
2018-06-30T11:07:52.189Z,1.67
2018-06-30T11:10:20.471Z,1.25
2018-06-30T11:12:48.721Z,0.93
2018-06-30T11:15:16.906Z,3.30
2018-06-30T11:17:45.094Z,2.00
2018-06-30T11:20:13.310Z,2.05
2018-06-30T11:22:41.650Z,1.60
2018-06-30T11:25:10.873Z,0.70
2018-06-30T11:27:39.114Z,1.52
2018-06-30T11:30:07.277Z,2.47
2018-06-30T11:32:35.852Z,0.68
2018-06-30T11:35:04.065Z,1.12
2018-06-30T11:37:32.571Z,4.75
2018-06-30T11:40:00.744Z,1.80
2018-06-30T11:42:28.949Z,1.65
2018-06-30T11:44:57.173Z,3.02
2018-06-30T11:47:25.377Z,4.03
2018-06-30T11:49:53.573Z,3.25
2018-06-30T11:52:21.770Z,1.22
2018-06-30T11:54:50.054Z,1.15
2018-06-30T11:57:18.246Z,1.80
2018-06-30T11:59:46.438Z,2.33
2018-06-30T12:02:14.597Z,0.50
2018-06-30T12:04:42.774Z,4.15
2018-06-30T12:07:10.952Z,2.62
2018-06-30T12:09:39.137Z,2.17
2018-06-30T12:12:07.410Z,1.17
2018-06-30T12:14:35.596Z,1.42
2018-06-30T12:17:03.885Z,2.70
2018-06-30T12:19:32.130Z,0.75
2018-06-30T12:22:00.396Z,2.62
2018-06-30T12:24:28.554Z,3.33
2018-06-30T12:26:56.739Z,2.65
2018-06-30T12:29:24.913Z,1.57
2018-06-30T12:31:53.160Z,0.70
2018-06-30T12:34:21.345Z,2.05
2018-06-30T12:36:49.534Z,2.05
2018-06-30T12:39:17.747Z,2.02
2018-06-30T12:41:45.971Z,0.55
2018-06-30T12:44:14.165Z,1.02
2018-06-30T12:46:42.390Z,0.50
2018-06-30T12:49:10.650Z,4.83
2018-06-30T12:51:38.857Z,1.17
2018-06-30T12:54:07.098Z,1.85
2018-06-30T12:56:35.253Z,0.40
2018-06-30T12:59:03.503Z,2.70
2018-06-30T13:01:31.697Z,1.95
2018-06-30T13:03:59.870Z,3.17
2018-06-30T13:06:28.053Z,1.62
2018-06-30T13:08:56.264Z,0.65
2018-06-30T13:11:24.443Z,1.12
2018-06-30T13:13:52.681Z,0.50
2018-06-30T13:16:20.870Z,3.12
2018-06-30T13:18:49.121Z,0.82
2018-06-30T13:21:17.459Z,0.47
2018-06-30T13:23:45.643Z,1.57
2018-06-30T13:26:13.838Z,2.58
2018-06-30T13:28:42.092Z,0.93
2018-06-30T13:31:10.253Z,1.75
2018-06-30T13:33:38.421Z,1.70
2018-06-30T13:36:06.619Z,0.50
2018-06-30T13:38:34.785Z,1.52
2018-06-30T13:41:02.985Z,2.37
2018-06-30T13:43:31.232Z,2.83
2018-06-30T13:45:59.365Z,1.50
2018-06-30T13:48:27.594Z,1.00
2018-06-30T13:50:55.789Z,2.12
2018-06-30T13:53:24.025Z,0.65
2018-06-30T13:55:52.194Z,1.62
2018-06-30T13:58:20.368Z,3.25
2018-06-30T14:00:48.687Z,0.68
2018-06-30T14:03:16.799Z,0.70
2018-06-30T14:05:45.007Z,1.92
2018-06-30T14:08:13.164Z,0.85
2018-06-30T14:10:41.325Z,2.02
2018-06-30T14:13:09.501Z,4.40
2018-06-30T14:15:37.687Z,1.05
2018-06-30T14:18:06.121Z,2.10
2018-06-30T14:20:34.277Z,2.30
2018-06-30T14:23:02.453Z,4.25
2018-06-30T14:25:30.650Z,2.17
2018-06-30T14:27:58.861Z,1.35
2018-06-30T14:30:27.026Z,0.95
2018-06-30T14:32:55.195Z,2.72
2018-06-30T14:35:23.373Z,0.85
2018-06-30T14:37:51.555Z,2.92
2018-06-30T14:40:19.721Z,2.60
2018-06-30T14:42:47.897Z,1.47
2018-06-30T14:45:16.078Z,2.55
2018-06-30T14:47:44.249Z,1.60
2018-06-30T14:50:12.449Z,2.17
2018-06-30T14:52:40.613Z,4.25
2018-06-30T14:55:08.947Z,2.58
2018-06-30T14:57:37.104Z,0.80
2018-06-30T15:00:06.615Z,1.10
2018-06-30T15:02:35.846Z,1.00
2018-06-30T15:05:04.368Z,1.10
2018-06-30T15:07:32.585Z,4.05
2018-06-30T15:10:00.821Z,1.90
2018-06-30T15:12:29.001Z,3.58
2018-06-30T15:14:57.185Z,5.22
2018-06-30T15:17:25.372Z,0.45
2018-06-30T15:19:53.558Z,2.92
2018-06-30T15:22:21.713Z,2.85
2018-06-30T15:24:49.919Z,3.22
2018-06-30T15:27:18.087Z,0.40
2018-06-30T15:29:46.282Z,2.42
2018-06-30T15:32:14.473Z,3.15
2018-06-30T15:34:42.989Z,1.60
2018-06-30T15:37:11.194Z,0.75
2018-06-30T15:39:39.377Z,2.08
2018-06-30T15:42:07.555Z,1.25
2018-06-30T15:44:35.762Z,1.50
2018-06-30T15:47:03.962Z,4.25
2018-06-30T15:49:32.132Z,1.95
2018-06-30T15:52:00.066Z,1.07
2018-06-30T15:54:28.258Z,3.75
2018-06-30T15:56:56.426Z,5.12
2018-06-30T15:59:24.577Z,1.85
2018-06-30T16:01:52.732Z,3.77
2018-06-30T16:04:20.912Z,1.52
2018-06-30T16:06:49.157Z,1.57
2018-06-30T16:09:17.339Z,1.87
2018-06-30T16:11:45.517Z,2.45
2018-06-30T16:14:13.690Z,2.72
2018-06-30T16:16:41.853Z,1.47
2018-06-30T16:19:10.014Z,2.08
2018-06-30T16:21:38.218Z,3.30
2018-06-30T16:24:06.375Z,2.70
2018-06-30T16:26:34.562Z,3.62
2018-06-30T16:29:02.716Z,2.77
2018-06-30T16:31:30.648Z,1.10
2018-06-30T16:33:58.827Z,1.02
2018-06-30T16:36:27.018Z,2.72
2018-06-30T16:38:55.389Z,3.42
2018-06-30T16:41:23.564Z,6.78
2018-06-30T16:43:51.713Z,4.08
2018-06-30T16:46:19.877Z,2.40
2018-06-30T16:48:48.026Z,0.82
2018-06-30T16:51:16.193Z,1.87
2018-06-30T16:53:44.345Z,2.67
2018-06-30T16:56:12.534Z,0.90
2018-06-30T16:58:40.758Z,3.83
2018-06-30T17:01:10.031Z,1.70
2018-06-30T17:03:38.216Z,1.15
2018-06-30T17:06:06.445Z,3.40
2018-06-30T17:08:34.570Z,1.27
2018-06-30T17:11:02.738Z,1.57
2018-06-30T17:13:30.958Z,1.40
2018-06-30T17:15:59.122Z,0.53
2018-06-30T17:18:27.285Z,2.87
2018-06-30T17:20:55.458Z,1.35
2018-06-30T17:23:23.621Z,1.30
2018-06-30T17:25:51.999Z,2.30
2018-06-30T17:28:20.164Z,2.52
2018-06-30T17:30:48.312Z,1.47
2018-06-30T17:33:16.476Z,0.30
2018-06-30T17:35:44.630Z,1.90
2018-06-30T17:38:12.798Z,0.60
2018-06-30T17:40:40.948Z,1.25
2018-06-30T17:43:09.165Z,0.45
2018-06-30T17:45:37.345Z,4.20
2018-06-30T17:48:05.577Z,1.40
2018-06-30T17:50:33.756Z,1.75
2018-06-30T17:53:02.147Z,0.50
2018-06-30T17:55:30.372Z,1.67
2018-06-30T17:57:58.540Z,2.12
2018-06-30T18:00:26.730Z,1.90
2018-06-30T18:02:55.133Z,0.90
2018-06-30T18:05:23.304Z,2.67
2018-06-30T18:07:51.464Z,0.40
2018-06-30T18:10:19.771Z,2.47
2018-06-30T18:12:47.832Z,4.12
2018-06-30T18:15:16.017Z,0.95
2018-06-30T18:17:44.212Z,2.83
2018-06-30T18:20:12.417Z,2.80
2018-06-30T18:22:40.619Z,0.50
2018-06-30T18:25:08.778Z,2.70
2018-06-30T18:27:36.937Z,2.00
2018-06-30T18:30:05.834Z,1.12
2018-06-30T18:32:34.055Z,1.10
2018-06-30T18:35:02.293Z,2.83
2018-06-30T18:37:30.787Z,2.12
2018-06-30T18:39:58.993Z,1.15
2018-06-30T18:42:27.189Z,2.62
2018-06-30T18:44:55.442Z,3.02
2018-06-30T18:47:23.612Z,1.72
2018-06-30T18:49:51.796Z,1.37
2018-06-30T18:52:20.010Z,0.75
2018-06-30T18:54:48.193Z,2.85
2018-06-30T18:57:16.396Z,2.58
2018-06-30T18:59:44.593Z,1.22
2018-06-30T19:02:12.757Z,2.90
2018-06-30T19:04:40.753Z,1.65
2018-06-30T19:07:08.938Z,3.20
2018-06-30T19:09:37.195Z,1.10
2018-06-30T19:12:05.494Z,1.00
2018-06-30T19:14:33.798Z,3.35
2018-06-30T19:17:02.081Z,3.05
2018-06-30T19:19:30.278Z,2.12
2018-06-30T19:21:58.441Z,1.70
2018-06-30T19:24:26.615Z,2.72
2018-06-30T19:26:54.791Z,9.08
2018-06-30T19:29:22.726Z,7.22
2018-06-30T19:31:50.962Z,5.60
2018-06-30T19:34:19.122Z,4.60
2018-06-30T19:36:47.298Z,2.85
2018-06-30T19:39:15.455Z,3.12
2018-06-30T19:41:43.657Z,3.75
2018-06-30T19:44:11.834Z,1.30
2018-06-30T19:46:39.992Z,4.10
2018-06-30T19:49:08.153Z,2.65
2018-06-30T19:51:36.317Z,2.12
2018-06-30T19:54:04.492Z,2.25
2018-06-30T19:56:32.676Z,2.75
2018-06-30T19:59:01.132Z,1.65
2018-06-30T20:01:29.306Z,1.55
2018-06-30T20:03:57.474Z,3.77
2018-06-30T20:06:25.789Z,5.47
2018-06-30T20:08:53.960Z,1.55
2018-06-30T20:11:22.158Z,3.35
2018-06-30T20:13:50.312Z,3.30
2018-06-30T20:16:18.465Z,2.58
2018-06-30T20:18:46.689Z,1.32
2018-06-30T20:21:14.853Z,1.35
2018-06-30T20:23:43.051Z,1.80
2018-06-30T20:26:11.290Z,1.10
2018-06-30T20:28:39.493Z,1.85
2018-06-30T20:31:07.854Z,1.67
2018-06-30T20:33:36.058Z,1.45
2018-06-30T20:36:04.310Z,2.77
2018-06-30T20:38:32.838Z,2.35
2018-06-30T20:41:01.002Z,2.75
2018-06-30T20:43:29.250Z,1.90
2018-06-30T20:45:57.433Z,2.83
2018-06-30T20:48:25.614Z,2.80
2018-06-30T20:50:53.892Z,3.62
2018-06-30T20:53:21.953Z,3.15
2018-06-30T20:55:50.130Z,2.70
2018-06-30T20:58:18.336Z,1.05
2018-06-30T21:00:46.547Z,1.85
2018-06-30T21:03:14.778Z,1.37
2018-06-30T21:05:42.938Z,1.20
2018-06-30T21:08:11.174Z,1.07
2018-06-30T21:10:39.451Z,3.22
2018-06-30T21:13:07.676Z,1.47
2018-06-30T21:15:35.909Z,2.35
2018-06-30T21:18:04.085Z,1.02
2018-06-30T21:20:32.255Z,2.70
2018-06-30T21:23:00.498Z,3.70
2018-06-30T21:25:28.711Z,1.40
2018-06-30T21:27:56.895Z,2.92
2018-06-30T21:30:25.064Z,1.37
2018-06-30T21:32:53.218Z,2.33
2018-06-30T21:35:21.390Z,2.67
2018-06-30T21:37:49.830Z,1.82
2018-06-30T21:40:17.984Z,2.50
2018-06-30T21:42:46.210Z,2.25
2018-06-30T21:45:14.378Z,1.57
2018-06-30T21:47:42.535Z,2.22
2018-06-30T21:50:11.085Z,1.47
2018-06-30T21:52:39.233Z,1.77
2018-06-30T21:55:07.458Z,1.82
2018-06-30T21:57:35.669Z,2.92
2018-06-30T22:00:06.033Z,1.75
2018-06-30T22:02:34.181Z,2.77
2018-06-30T22:05:02.346Z,4.85
2018-06-30T22:07:30.501Z,3.12
2018-06-30T22:09:58.658Z,2.37
2018-06-30T22:12:26.812Z,2.40
2018-06-30T22:14:54.961Z,1.70
2018-06-30T22:17:23.120Z,1.50
2018-06-30T22:19:51.282Z,2.45
2018-06-30T22:22:19.433Z,1.98
2018-06-30T22:24:47.594Z,1.15
2018-06-30T22:27:15.770Z,3.17
2018-06-30T22:29:43.913Z,2.85
2018-06-30T22:32:12.114Z,3.47
2018-06-30T22:34:40.042Z,1.45
2018-06-30T22:37:08.221Z,1.85
2018-06-30T22:39:47.857Z,2.22
2018-06-30T22:42:16.029Z,4.50
2018-06-30T22:44:44.177Z,1.62
2018-06-30T22:47:12.504Z,2.85
2018-06-30T22:49:40.578Z,1.25
2018-06-30T22:52:08.745Z,2.22
2018-06-30T22:54:36.897Z,2.27
2018-06-30T22:57:05.070Z,3.80
2018-06-30T22:59:33.234Z,1.87
2018-06-30T23:02:01.402Z,4.05
2018-06-30T23:04:29.569Z,3.30
2018-06-30T23:06:57.733Z,4.37
2018-06-30T23:09:25.894Z,2.80
2018-06-30T23:11:54.059Z,3.50
2018-06-30T23:14:22.278Z,2.10
2018-06-30T23:16:50.443Z,4.12
2018-06-30T23:19:18.608Z,1.10
2018-06-30T23:21:46.753Z,2.17
2018-06-30T23:24:14.925Z,2.05
2018-06-30T23:26:43.075Z,2.92
2018-06-30T23:29:11.274Z,1.98
2018-06-30T23:31:39.413Z,1.57
2018-06-30T23:34:07.607Z,1.00
2018-06-30T23:36:35.750Z,2.75
2018-06-30T23:39:05.987Z,1.62
2018-06-30T23:41:34.162Z,2.17
2018-06-30T23:44:02.331Z,1.22
2018-06-30T23:46:30.487Z,1.15
2018-06-30T23:48:58.638Z,1.35
2018-06-30T23:51:26.797Z,0.70
2018-06-30T23:53:54.970Z,1.52
2018-06-30T23:56:23.158Z,1.87
2018-06-30T23:58:51.373Z,2.98
